createdAt,value
2023-02-06T00:01:50.758Z,8.10
2023-02-06T00:04:19.899Z,7.20
2023-02-06T00:06:47.817Z,7.10
2023-02-06T00:09:15.835Z,6.63
2023-02-06T00:11:43.675Z,7.60
2023-02-06T00:14:11.525Z,7.13
2023-02-06T00:16:39.551Z,7.63
2023-02-06T00:19:07.490Z,7.20
2023-02-06T00:21:35.377Z,7.73
2023-02-06T00:24:04.467Z,7.83
2023-02-06T00:26:32.499Z,6.33
2023-02-06T00:29:00.761Z,7.13
2023-02-06T00:31:28.998Z,7.07
2023-02-06T00:33:56.861Z,6.40
2023-02-06T00:36:24.822Z,6.80
2023-02-06T00:38:55.024Z,6.30
2023-02-06T00:41:22.864Z,6.40
2023-02-06T00:43:50.709Z,7.07
2023-02-06T00:46:18.562Z,6.17
2023-02-06T00:48:46.465Z,7.10
2023-02-06T00:51:14.405Z,6.17
2023-02-06T00:53:42.253Z,6.33
2023-02-06T00:56:10.113Z,6.70
2023-02-06T00:58:37.983Z,6.17
2023-02-06T01:01:05.892Z,6.23
2023-02-06T01:03:34.338Z,5.97
2023-02-06T01:06:02.291Z,6.33
2023-02-06T01:08:30.101Z,6.97
2023-02-06T01:10:58.013Z,6.63
2023-02-06T01:13:26.908Z,7.00
2023-02-06T01:15:54.744Z,6.90
2023-02-06T01:18:22.612Z,7.07
2023-02-06T01:20:50.444Z,7.50
2023-02-06T01:23:18.303Z,6.77
2023-02-06T01:25:46.248Z,6.97
2023-02-06T01:28:14.102Z,8.07
2023-02-06T01:30:42.034Z,7.80
2023-02-06T01:33:09.922Z,7.27
2023-02-06T01:35:37.843Z,7.80
2023-02-06T01:38:05.734Z,7.73
2023-02-06T01:40:33.621Z,7.30
2023-02-06T01:43:02.077Z,8.47
2023-02-06T01:45:42.417Z,7.13
2023-02-06T01:48:28.902Z,6.90
2023-02-06T01:50:59.925Z,6.50
2023-02-06T01:53:30.560Z,7.13
2023-02-06T01:56:03.134Z,6.23
2023-02-06T01:58:43.662Z,7.60
2023-02-06T02:01:11.982Z,6.27
2023-02-06T02:03:45.530Z,5.47
2023-02-06T02:06:19.406Z,7.73
2023-02-06T02:08:51.978Z,6.97
2023-02-06T02:11:43.045Z,6.10
2023-02-06T02:14:15.920Z,6.17
2023-02-06T02:17:16.909Z,6.87
2023-02-06T02:20:43.823Z,6.73
2023-02-06T02:24:14.723Z,7.73
2023-02-06T02:27:15.888Z,7.63
2023-02-06T02:30:38.850Z,7.27
2023-02-06T02:33:23.512Z,7.20
2023-02-06T02:36:12.059Z,8.20
2023-02-06T02:39:29.360Z,8.10
2023-02-06T02:42:26.757Z,7.60
2023-02-06T02:45:16.493Z,7.30
2023-02-06T02:48:23.639Z,6.80
2023-02-06T02:50:55.058Z,6.50
2023-02-06T02:53:23.101Z,7.70
2023-02-06T02:55:50.991Z,6.97
2023-02-06T02:58:33.680Z,8.00
2023-02-06T03:01:11.792Z,7.70
2023-02-06T03:03:42.166Z,8.50
2023-02-06T03:06:52.016Z,7.40
2023-02-06T03:09:45.594Z,6.67
2023-02-06T03:12:44.460Z,7.97
2023-02-06T03:15:44.107Z,7.93
2023-02-06T03:19:11.677Z,7.50
2023-02-06T03:21:41.666Z,8.10
2023-02-06T03:24:24.490Z,7.57
2023-02-06T03:27:02.441Z,8.30
2023-02-06T03:29:34.794Z,8.27
2023-02-06T03:32:18.922Z,8.27
2023-02-06T03:35:20.081Z,7.57
2023-02-06T03:37:48.809Z,8.13
2023-02-06T03:40:18.633Z,8.20
2023-02-06T03:42:56.693Z,8.33
2023-02-06T03:45:36.306Z,8.30
2023-02-06T03:48:23.944Z,7.77
2023-02-06T03:50:56.092Z,7.40
2023-02-06T03:53:26.332Z,8.20
2023-02-06T03:56:01.533Z,8.40
2023-02-06T03:58:29.671Z,8.30
2023-02-06T04:00:57.946Z,7.37
2023-02-06T04:03:26.468Z,8.40
2023-02-06T04:05:54.375Z,8.50
2023-02-06T04:08:22.216Z,6.83
2023-02-06T04:10:50.151Z,8.17
2023-02-06T04:13:17.995Z,9.07
2023-02-06T04:15:46.069Z,8.27
2023-02-06T04:18:13.986Z,7.73
2023-02-06T04:20:41.837Z,8.07
2023-02-06T04:23:09.840Z,8.57
2023-02-06T04:25:38.083Z,8.00
2023-02-06T04:28:06.273Z,7.77
2023-02-06T04:30:34.307Z,8.00
2023-02-06T04:33:02.385Z,7.00
2023-02-06T04:35:30.361Z,8.10
2023-02-06T04:37:58.188Z,7.67
2023-02-06T04:40:28.428Z,7.77
2023-02-06T04:42:57.314Z,8.40
2023-02-06T04:45:25.586Z,8.23
2023-02-06T04:47:53.477Z,7.83
2023-02-06T04:50:21.482Z,8.07
2023-02-06T04:52:49.398Z,8.03
2023-02-06T04:55:17.357Z,8.23
2023-02-06T04:57:45.229Z,8.40
2023-02-06T05:00:14.617Z,8.80
2023-02-06T05:02:42.577Z,8.40
2023-02-06T05:05:12.245Z,8.67
2023-02-06T05:07:40.114Z,8.80
2023-02-06T05:10:09.329Z,7.83
2023-02-06T05:12:37.368Z,8.53
2023-02-06T05:15:07.636Z,7.80
2023-02-06T05:17:36.285Z,6.50
2023-02-06T05:20:06.508Z,7.60
2023-02-06T05:22:34.648Z,7.40
2023-02-06T05:25:02.707Z,6.90
2023-02-06T05:27:30.886Z,6.77
2023-02-06T05:29:58.996Z,7.63
2023-02-06T05:32:26.861Z,7.40
2023-02-06T05:34:54.801Z,8.07
2023-02-06T05:37:22.789Z,7.90
2023-02-06T05:39:53.757Z,7.23
2023-02-06T05:42:21.597Z,7.37
2023-02-06T05:44:49.561Z,6.90
2023-02-06T05:47:17.601Z,7.20
2023-02-06T05:49:45.478Z,7.33
2023-02-06T05:52:13.537Z,7.10
2023-02-06T05:54:41.453Z,7.67
2023-02-06T05:57:09.621Z,7.73
2023-02-06T05:59:37.965Z,9.40
2023-02-06T06:02:06.430Z,7.77
2023-02-06T06:04:34.345Z,7.80
2023-02-06T06:07:02.362Z,8.07
2023-02-06T06:09:30.284Z,7.53
2023-02-06T06:11:58.127Z,8.50
2023-02-06T06:14:26.019Z,7.57
2023-02-06T06:16:53.903Z,7.63
2023-02-06T06:19:21.832Z,8.13
2023-02-06T06:21:49.899Z,8.87
2023-02-06T06:24:18.009Z,9.30
2023-02-06T06:26:46.206Z,9.10
2023-02-06T06:29:14.300Z,8.30
2023-02-06T06:31:42.221Z,9.43
2023-02-06T06:34:10.696Z,9.17
2023-02-06T06:36:38.590Z,8.60
2023-02-06T06:39:06.472Z,9.40
2023-02-06T06:41:37.876Z,9.03
2023-02-06T06:44:05.880Z,9.93
2023-02-06T06:46:34.050Z,9.67
2023-02-06T06:49:01.974Z,10.63
2023-02-06T06:51:30.128Z,11.10
2023-02-06T06:53:58.124Z,10.60
2023-02-06T06:56:27.015Z,11.23
2023-02-06T06:58:55.568Z,12.17
2023-02-06T07:01:23.865Z,11.97
2023-02-06T07:03:52.132Z,10.63
2023-02-06T07:06:20.141Z,10.63
2023-02-06T07:08:48.309Z,10.80
2023-02-06T07:11:20.379Z,11.33
2023-02-06T07:13:48.349Z,12.97
2023-02-06T07:16:16.264Z,13.93
2023-02-06T07:18:44.185Z,13.47
2023-02-06T07:21:15.784Z,13.03
2023-02-06T07:23:43.789Z,12.53
2023-02-06T07:26:12.297Z,12.57
2023-02-06T07:28:41.460Z,11.40
2023-02-06T07:31:11.136Z,12.93
2023-02-06T07:33:39.288Z,13.33
2023-02-06T07:36:19.093Z,12.83
2023-02-06T07:38:47.408Z,13.30
2023-02-06T07:41:16.147Z,13.90
2023-02-06T07:43:44.769Z,12.57
2023-02-06T07:46:15.296Z,12.60
2023-02-06T07:48:43.579Z,11.90
2023-02-06T07:51:11.496Z,12.70
2023-02-06T07:53:39.696Z,12.77
2023-02-06T07:56:19.003Z,13.57
2023-02-06T07:58:55.879Z,14.83
2023-02-06T08:01:24.296Z,13.80
2023-02-06T08:03:54.633Z,12.67
2023-02-06T08:06:25.777Z,12.77
2023-02-06T08:08:56.476Z,12.83
2023-02-06T08:11:27.676Z,13.70
2023-02-06T08:13:55.881Z,12.27
2023-02-06T08:16:24.991Z,12.53
2023-02-06T08:18:54.982Z,12.80
2023-02-06T08:21:26.822Z,12.53
2023-02-06T08:24:00.140Z,11.13
2023-02-06T08:26:30.452Z,10.93
2023-02-06T08:29:03.643Z,12.53
2023-02-06T08:31:39.359Z,12.30
2023-02-06T08:34:12.263Z,11.10
2023-02-06T08:36:43.553Z,11.47
2023-02-06T08:39:14.830Z,12.10
2023-02-06T08:41:44.447Z,12.50
2023-02-06T08:44:17.252Z,12.23
2023-02-06T08:46:49.595Z,12.27
2023-02-06T08:49:22.477Z,12.43
2023-02-06T08:51:50.825Z,11.63
2023-02-06T08:54:22.864Z,12.90
2023-02-06T08:56:52.099Z,13.60
2023-02-06T08:59:20.857Z,15.23
2023-02-06T09:01:49.320Z,12.20
2023-02-06T09:04:17.664Z,16.23
2023-02-06T09:06:48.955Z,17.33
2023-02-06T09:09:16.995Z,15.50
2023-02-06T09:11:44.907Z,13.47
2023-02-06T09:14:18.392Z,18.47
2023-02-06T09:16:46.449Z,13.53
2023-02-06T09:19:17.087Z,14.67
2023-02-06T09:21:44.956Z,13.87
2023-02-06T09:24:12.896Z,16.60
2023-02-06T09:26:58.476Z,15.53
2023-02-06T09:29:31.574Z,14.10
2023-02-06T09:32:00.178Z,18.77
2023-02-06T09:34:28.502Z,14.87
2023-02-06T09:36:57.698Z,15.50
2023-02-06T09:39:26.150Z,14.13
2023-02-06T09:42:06.273Z,14.50
2023-02-06T09:44:42.713Z,15.90
2023-02-06T09:47:37.583Z,14.50
2023-02-06T09:50:30.651Z,15.83
2023-02-06T09:53:41.042Z,15.13
2023-02-06T09:56:31.077Z,14.70
2023-02-06T09:59:35.294Z,15.03
2023-02-06T10:02:46.096Z,14.93
2023-02-06T10:05:36.616Z,15.13
2023-02-06T10:09:05.332Z,13.70
2023-02-06T10:11:56.668Z,15.43
2023-02-06T10:14:56.482Z,13.47
2023-02-06T10:17:46.472Z,11.93
2023-02-06T10:20:36.128Z,13.47
2023-02-06T10:23:22.186Z,12.77
2023-02-06T10:26:19.054Z,12.73
2023-02-06T10:28:55.995Z,12.90
2023-02-06T10:31:54.601Z,12.83
2023-02-06T10:34:59.157Z,12.03
2023-02-06T10:38:08.607Z,11.73
2023-02-06T10:41:06.720Z,12.53
2023-02-06T10:44:22.991Z,11.73
2023-02-06T10:46:54.085Z,12.27
2023-02-06T10:49:44.151Z,12.07
2023-02-06T10:52:28.801Z,13.27
2023-02-06T10:55:26.650Z,12.10
2023-02-06T10:58:37.233Z,12.63
2023-02-06T11:01:24.634Z,12.40
2023-02-06T11:04:24.869Z,12.73
2023-02-06T11:07:02.357Z,12.43
2023-02-06T11:09:30.771Z,14.00
2023-02-06T11:12:00.722Z,14.10
2023-02-06T11:14:38.745Z,13.63
2023-02-06T11:17:06.645Z,14.40
2023-02-06T11:19:42.322Z,12.67
2023-02-06T11:22:25.815Z,12.50
2023-02-06T11:25:07.817Z,11.70
2023-02-06T11:27:36.584Z,12.23
2023-02-06T11:30:25.103Z,10.70
2023-02-06T11:33:21.186Z,12.03
2023-02-06T11:35:59.790Z,12.43
2023-02-06T11:38:30.829Z,12.27
2023-02-06T11:41:20.716Z,13.77
2023-02-06T11:43:56.008Z,12.43
2023-02-06T11:46:36.916Z,12.43
2023-02-06T11:49:31.807Z,12.43
2023-02-06T11:52:01.016Z,12.63
2023-02-06T11:54:35.320Z,14.87
2023-02-06T11:57:34.030Z,15.03
2023-02-06T12:00:25.827Z,20.50
2023-02-06T12:02:55.871Z,16.33
2023-02-06T12:05:30.811Z,17.50
2023-02-06T12:08:19.333Z,18.37
2023-02-06T12:11:04.556Z,13.70
2023-02-06T12:13:47.537Z,22.60
2023-02-06T12:16:16.222Z,15.20
2023-02-06T12:18:50.987Z,14.97
2023-02-06T12:21:40.811Z,16.13
2023-02-06T12:24:28.656Z,13.97
2023-02-06T12:27:02.139Z,13.70
2023-02-06T12:29:40.640Z,15.33
2023-02-06T12:32:20.607Z,12.63
2023-02-06T12:35:00.714Z,11.50
2023-02-06T12:37:47.454Z,13.53
2023-02-06T12:40:58.886Z,11.93
2023-02-06T12:43:28.509Z,12.97
2023-02-06T12:46:22.587Z,11.60
2023-02-06T12:49:16.265Z,11.97
2023-02-06T12:52:14.454Z,11.60
2023-02-06T12:55:26.110Z,11.47
2023-02-06T12:57:55.333Z,12.43
2023-02-06T13:00:56.906Z,13.47
2023-02-06T13:03:43.660Z,12.50
2023-02-06T13:06:29.742Z,11.57
2023-02-06T13:09:06.401Z,12.43
2023-02-06T13:11:40.535Z,11.93
2023-02-06T13:14:19.454Z,12.07
2023-02-06T13:17:07.809Z,16.10
2023-02-06T13:19:41.677Z,13.93
2023-02-06T13:22:13.381Z,13.20
2023-02-06T13:24:45.351Z,13.50
2023-02-06T13:27:24.597Z,12.67
2023-02-06T13:29:53.991Z,11.80
2023-02-06T13:32:41.972Z,12.60
2023-02-06T13:35:26.376Z,12.53
2023-02-06T13:38:35.208Z,13.47
2023-02-06T13:41:37.173Z,11.60
2023-02-06T13:44:23.037Z,11.93
2023-02-06T13:47:21.325Z,12.07
2023-02-06T13:50:23.863Z,12.17
2023-02-06T13:53:42.517Z,11.07
2023-02-06T13:56:52.260Z,11.83
2023-02-06T13:59:35.997Z,12.60
2023-02-06T14:02:41.770Z,11.23
2023-02-06T14:05:57.610Z,10.83
2023-02-06T14:08:46.973Z,11.33
2023-02-06T14:12:15.977Z,11.97
2023-02-06T14:15:11.360Z,10.83
2023-02-06T14:18:07.081Z,10.40
2023-02-06T14:20:54.711Z,9.97
2023-02-06T14:23:59.108Z,10.30
2023-02-06T14:26:57.592Z,9.40
2023-02-06T14:30:02.500Z,8.03
2023-02-06T14:33:06.680Z,7.97
2023-02-06T14:36:25.072Z,8.53
2023-02-06T14:39:25.355Z,8.10
2023-02-06T14:41:54.135Z,9.30
2023-02-06T14:44:31.016Z,9.30
2023-02-06T14:46:59.301Z,8.37
2023-02-06T14:49:38.029Z,8.10
2023-02-06T14:53:35.285Z,8.07
2023-02-06T14:56:24.547Z,8.10
2023-02-06T14:58:52.621Z,8.27
2023-02-06T15:01:32.790Z,9.50
2023-02-06T15:04:27.060Z,9.67
2023-02-06T15:07:02.083Z,9.40
2023-02-06T15:09:46.490Z,8.37
2023-02-06T15:12:26.609Z,8.97
2023-02-06T15:15:25.663Z,8.87
2023-02-06T15:18:17.127Z,8.70
2023-02-06T15:20:59.221Z,8.27
2023-02-06T15:24:16.297Z,7.80
2023-02-06T15:27:02.014Z,8.50
2023-02-06T15:29:30.387Z,9.93
2023-02-06T15:32:21.626Z,9.87
2023-02-06T15:34:53.233Z,10.20
2023-02-06T15:37:31.292Z,11.67
2023-02-06T15:40:15.273Z,11.30
2023-02-06T15:42:43.442Z,11.50
2023-02-06T15:45:37.026Z,12.03
2023-02-06T15:48:52.972Z,11.23
2023-02-06T15:51:50.567Z,11.57
2023-02-06T15:54:26.234Z,11.67
2023-02-06T15:57:14.914Z,11.57
2023-02-06T15:59:43.547Z,13.17
2023-02-06T16:02:45.890Z,13.43
2023-02-06T16:05:34.230Z,14.00
2023-02-06T16:08:12.956Z,12.83
2023-02-06T16:10:41.529Z,13.53
2023-02-06T16:13:16.953Z,15.57
2023-02-06T16:16:11.523Z,15.17
2023-02-06T16:18:42.772Z,13.87
2023-02-06T16:21:17.250Z,15.23
2023-02-06T16:23:51.567Z,13.43
2023-02-06T16:26:44.177Z,13.57
2023-02-06T16:29:32.441Z,14.67
2023-02-06T16:32:22.092Z,13.17
2023-02-06T16:34:50.641Z,13.63
2023-02-06T16:37:29.431Z,15.03
2023-02-06T16:39:57.474Z,15.67
2023-02-06T16:42:34.749Z,14.90
2023-02-06T16:45:18.936Z,15.93
2023-02-06T16:47:47.109Z,14.80
2023-02-06T16:50:16.763Z,14.57
2023-02-06T16:52:55.856Z,18.07
2023-02-06T16:55:26.303Z,17.43
2023-02-06T16:58:00.465Z,17.20
2023-02-06T17:00:31.696Z,18.57
2023-02-06T17:02:59.971Z,15.10
2023-02-06T17:05:29.315Z,14.17
2023-02-06T17:07:57.369Z,13.80
2023-02-06T17:10:26.802Z,24.37
2023-02-06T17:12:54.736Z,15.33
2023-02-06T17:15:22.803Z,25.77
2023-02-06T17:17:51.827Z,25.07
2023-02-06T17:20:39.966Z,15.83
2023-02-06T17:23:10.951Z,18.40
2023-02-06T17:25:42.015Z,20.07
2023-02-06T17:28:16.689Z,17.00
2023-02-06T17:30:46.303Z,14.70
2023-02-06T17:33:14.340Z,15.73
2023-02-06T17:35:42.278Z,16.57
2023-02-06T17:38:10.513Z,16.50
2023-02-06T17:40:40.926Z,19.37
2023-02-06T17:43:08.949Z,18.80
2023-02-06T17:45:39.600Z,20.27
2023-02-06T17:48:08.744Z,14.90
2023-02-06T17:50:39.157Z,14.57
2023-02-06T17:53:11.907Z,17.33
2023-02-06T17:55:41.095Z,14.47
2023-02-06T17:58:09.788Z,20.33
2023-02-06T18:00:38.218Z,18.73
2023-02-06T18:03:06.460Z,18.03
2023-02-06T18:05:34.826Z,15.47
2023-02-06T18:08:02.841Z,17.47
2023-02-06T18:10:30.877Z,14.50
2023-02-06T18:12:58.898Z,14.43
2023-02-06T18:15:26.758Z,15.97
2023-02-06T18:17:54.977Z,16.50
2023-02-06T18:20:22.933Z,19.83
2023-02-06T18:22:50.808Z,15.43
2023-02-06T18:25:18.802Z,18.87
2023-02-06T18:27:47.825Z,18.77
2023-02-06T18:30:17.157Z,16.43
2023-02-06T18:32:45.121Z,17.17
2023-02-06T18:35:14.851Z,14.83
2023-02-06T18:37:43.751Z,12.93
2023-02-06T18:40:12.611Z,13.93
2023-02-06T18:42:54.492Z,15.30
2023-02-06T18:45:31.178Z,21.13
2023-02-06T18:47:59.200Z,16.17
2023-02-06T18:50:27.470Z,16.33
2023-02-06T18:52:55.769Z,14.60
2023-02-06T18:55:23.833Z,17.20
2023-02-06T18:57:52.796Z,16.27
2023-02-06T19:00:23.981Z,16.83
2023-02-06T19:02:52.023Z,15.87
2023-02-06T19:05:20.817Z,14.93
2023-02-06T19:07:52.152Z,15.90
2023-02-06T19:10:21.508Z,18.43
2023-02-06T19:12:49.408Z,17.07
2023-02-06T19:15:17.354Z,18.53
2023-02-06T19:17:45.344Z,19.40
2023-02-06T19:20:13.631Z,18.17
2023-02-06T19:22:41.566Z,19.20
2023-02-06T19:25:14.241Z,18.57
2023-02-06T19:27:42.505Z,16.93
2023-02-06T19:30:13.455Z,19.47
2023-02-06T19:32:41.932Z,22.77
2023-02-06T19:35:11.875Z,21.67
2023-02-06T19:37:40.125Z,19.17
2023-02-06T19:40:08.597Z,19.90
2023-02-06T19:42:38.885Z,20.80
2023-02-06T19:45:07.336Z,20.33
2023-02-06T19:47:36.101Z,18.30
2023-02-06T19:50:05.114Z,24.03
2023-02-06T19:52:35.197Z,22.13
2023-02-06T19:55:04.129Z,20.53
2023-02-06T19:57:32.050Z,19.73
2023-02-06T19:59:59.972Z,23.20
2023-02-06T20:02:29.451Z,26.90
2023-02-06T20:04:57.381Z,28.10
2023-02-06T20:07:25.264Z,24.30
2023-02-06T20:09:55.416Z,22.90
2023-02-06T20:12:26.074Z,20.00
2023-02-06T20:14:53.982Z,21.63
2023-02-06T20:17:23.428Z,24.10
2023-02-06T20:19:51.331Z,26.37
2023-02-06T20:22:19.377Z,20.77
2023-02-06T20:24:47.733Z,24.47
2023-02-06T20:27:18.470Z,25.13
2023-02-06T20:29:47.142Z,23.80
2023-02-06T20:32:17.011Z,23.80
2023-02-06T20:34:45.807Z,21.80
2023-02-06T20:37:14.030Z,23.47
2023-02-06T20:39:41.906Z,25.97
2023-02-06T20:42:09.832Z,32.13
2023-02-06T20:44:37.717Z,28.53
2023-02-06T20:47:05.640Z,31.33
2023-02-06T20:49:33.555Z,28.17
2023-02-06T20:52:03.220Z,23.77
2023-02-06T20:54:31.186Z,25.10
2023-02-06T20:57:00.471Z,25.23
2023-02-06T20:59:29.842Z,25.13
2023-02-06T21:01:58.284Z,27.80
2023-02-06T21:04:26.174Z,26.00
2023-02-06T21:06:55.077Z,23.93
2023-02-06T21:09:22.924Z,25.13
2023-02-06T21:11:50.821Z,25.20
2023-02-06T21:14:19.961Z,24.40
2023-02-06T21:16:48.730Z,25.47
2023-02-06T21:19:20.469Z,25.53
2023-02-06T21:21:49.577Z,23.87
2023-02-06T21:24:18.551Z,21.57
2023-02-06T21:26:46.944Z,25.40
2023-02-06T21:29:15.823Z,24.53
2023-02-06T21:31:46.002Z,24.60
2023-02-06T21:34:22.774Z,25.57
2023-02-06T21:36:51.037Z,23.50
2023-02-06T21:39:23.346Z,23.37
2023-02-06T21:41:53.744Z,22.80
2023-02-06T21:44:24.374Z,20.37
2023-02-06T21:46:53.177Z,22.60
2023-02-06T21:49:21.629Z,21.13
2023-02-06T21:51:50.894Z,20.20
2023-02-06T21:54:19.251Z,20.67
2023-02-06T21:56:47.174Z,19.80
2023-02-06T21:59:15.042Z,20.63
2023-02-06T22:01:43.227Z,21.00
2023-02-06T22:04:12.530Z,20.73
2023-02-06T22:06:40.789Z,21.50
2023-02-06T22:09:15.219Z,20.23
2023-02-06T22:11:43.947Z,19.30
2023-02-06T22:14:16.976Z,20.03
2023-02-06T22:16:48.872Z,21.50
2023-02-06T22:19:17.908Z,20.27
2023-02-06T22:21:45.917Z,19.23
2023-02-06T22:24:14.234Z,18.63
2023-02-06T22:26:43.064Z,18.30
2023-02-06T22:29:16.247Z,19.20
2023-02-06T22:31:45.109Z,18.13
2023-02-06T22:34:19.513Z,19.30
2023-02-06T22:36:50.920Z,22.27
2023-02-06T22:39:19.088Z,22.50
2023-02-06T22:41:47.769Z,22.97
2023-02-06T22:44:18.960Z,18.63
2023-02-06T22:46:51.845Z,16.37
2023-02-06T22:49:21.507Z,16.60
2023-02-06T22:51:49.473Z,17.07
2023-02-06T22:54:17.433Z,20.50
2023-02-06T22:56:45.601Z,17.80
2023-02-06T22:59:17.193Z,17.37
2023-02-06T23:01:53.524Z,19.43
2023-02-06T23:04:28.937Z,16.20
2023-02-06T23:06:57.544Z,16.90
2023-02-06T23:09:38.018Z,19.70
2023-02-06T23:12:06.911Z,17.97
2023-02-06T23:14:34.899Z,19.10
2023-02-06T23:17:05.580Z,20.57
2023-02-06T23:19:33.914Z,17.23
2023-02-06T23:22:04.236Z,16.67
2023-02-06T23:24:32.757Z,17.97
2023-02-06T23:27:02.131Z,18.27
2023-02-06T23:29:30.815Z,20.10
2023-02-06T23:32:01.582Z,20.33
2023-02-06T23:34:29.563Z,19.73
2023-02-06T23:36:57.580Z,16.40
2023-02-06T23:39:25.535Z,16.07
2023-02-06T23:41:53.542Z,16.73
2023-02-06T23:44:21.459Z,16.13
2023-02-06T23:46:49.424Z,17.33
2023-02-06T23:49:17.386Z,17.57
2023-02-06T23:51:45.322Z,16.50
2023-02-06T23:54:13.435Z,16.90
2023-02-06T23:56:41.411Z,16.27
2023-02-06T23:59:10.574Z,15.43
